Flight Track Log - Related Links

Times and Time Zones

All times are in EST time to prevent confusion due to time zone crossing. See the FLG4349 flight status page for this flight to view local times or setup timezone preferences in your user account.

Time Position Orientation Groundspeed Altitude Reporting Facility
EST Latitude Longitude Course Direction KTS MPH feet Rate Location/Type
07:15PM 40.5039 -80.4464 269° West 247 284 8,700  Level Indianapolis Center
07:16PM 40.5039 -80.5381 270° West 247 284 9,100 1,429 Climbing Indianapolis Center
07:17PM 40.4989 -80.6394 266° West 252 290 11,700 2,448 Climbing Cleveland Center
07:18PM 40.4667 -80.9273 270° West  Level FlightAware Approximate
07:18PM 40.4967 -80.7464 268° West 289 333 14,200  Level Cleveland Center
07:19PM 40.4667 -81.0461 270° West  Level FlightAware Approximate
07:19PM 40.4939 -80.8575 268° West 303 349 16,900  Level Cleveland Center
07:20PM 40.4914 -80.9683 268° West 304 350 19,300 2,459 Climbing Cleveland Center
07:21PM 40.4883 -81.1022 268° West 305 351 21,900 1,328 Climbing Cleveland Center
07:22PM 40.4656 -81.2219 256° West 346 398 22,000 49 Climbing Cleveland Center
07:23PM 40.4267 -81.3492 248° West 372 428 22,000  Level Cleveland Center
07:24PM 40.3867 -81.4831 249° West 391 450 22,000  Level Cleveland Center
07:25PM 40.3453 -81.6178 248° West 392 451 22,000  Level Cleveland Center
07:26PM 40.3022 -81.7586 248° West 391 450 22,000  Level Cleveland Center
07:27PM 40.2619 -81.8897 248° West 389 448 22,000  Level Cleveland Center
07:28PM 40.2222 -82.0208 248° West 389 448 22,000  Level Cleveland Center
07:29PM 40.1808 -82.1497 247° West 390 449 22,000  Level Indianapolis Center
07:30PM 40.1364 -82.2794 246° West 390 449 22,000  Level Indianapolis Center
07:31PM 40.0908 -82.4067 245° Southwest 390 449 22,000  Level Indianapolis Center
07:32PM 40.0444 -82.5342 245° Southwest 390 449 22,000  Level Indianapolis Center
07:33PM 40.0000 -82.6622 246° West 390 449 22,000  Level Indianapolis Center
07:34PM 39.9544 -82.7911 245° Southwest 390 449 22,000  Level Indianapolis Center
07:35PM 39.9078 -82.9186 245° Southwest 390 449 22,000  Level Indianapolis Center
07:36PM 39.8617 -83.0447 245° Southwest 390 449 22,000  Level Indianapolis Center
07:37PM 39.8150 -83.1725 245° Southwest 390 449 22,000  Level Indianapolis Center
07:38PM 39.7678 -83.3006 244° Southwest 390 449 22,000  Level Indianapolis Center
07:39PM 39.7203 -83.4306 245° Southwest 390 449 22,000  Level Indianapolis Center
07:40PM 39.6725 -83.5594 244° Southwest 390 449 22,000  Level Indianapolis Center
07:41PM 39.6258 -83.6869 245° Southwest 390 449 22,000 -1,770 Level Indianapolis Center
07:42PM 39.5836 -83.8008 244° Southwest 361 415 18,400 -3,492 Descending Indianapolis Center
07:43PM 39.5431 -83.9072 244° Southwest 337 388 14,900 -3,492 Descending Indianapolis Center
07:44PM 39.5006 -84.0247 245° Southwest 307 353 11,300 -1,918 Descending Indianapolis Center
07:45PM 39.4511 -84.1069 232° Southwest 294 338 11,000 -492 Descending Indianapolis Center
07:46PM 39.3986 -84.1831 228° Southwest 289 333 10,300 -1,279 Descending Indianapolis Center
07:47PM 39.3592 -84.2486 232° Southwest 245 282 8,400 -2,115 Descending Indianapolis Center
07:48PM 39.3317 -84.3231 244° Southwest 235 270 6,000 -1,672 Descending Indianapolis Center
07:49PM 39.3025 -84.3961 243° Southwest 234 269 5,000 -492 Descending Indianapolis Center
07:50PM 39.2703 -84.4711 241° Southwest 234 269 5,000 -148 Level Indianapolis Center
07:51PM 39.2506 -84.5511 252° West 235 270 4,700 -787 Descending Indianapolis Center
07:52PM 39.2447 -84.6444 265° West 234 269 3,400 -640 Descending Indianapolis Center
07:54PM 39.1500 -84.6500 183° South 147 169 2,800 -441 Descending Cincinnati TRACON
07:55PM 39.1167 -84.6500 180° South 125 144 2,100 -700 Descending Cincinnati TRACON
07:56PM 39.0833 -84.6500 180° South 123 142 1,400 -700 Descending Cincinnati TRACON
07:58PM 39.0488 -84.6678 38° Northeast  Level Estimated
08:05PM 39.0488 -84.6678 38° Northeast  Level Estimated

Login

Don't have an account? Register now (free) for customized features, flight alerts, and more!